Página principal
METAR-TAF:

METAR-TAF

Aeroportos :

Pohnpei, Micronésia

latitude: 06-59N, longitude: 158-12E, altura: 2 m

Observação actual do tempo

O boletim foi feito há 1 hora e 12 minutos, às 23:54 UTC
Vento 8 kt de oes-noroeste
Temperatura 30°C
Humidade 75%
Pressão 1009 hPa
Visibilidade: 24.1 km
Nuvens dispersasa uma altura de 1800 ft
Nuvens dispersasa uma altura de 13000 ft
Nuvens fragmentadasa uma altura de 30000 ft

METAR: PTPN 172354Z 30008KT 15SM SCT018 SCT130 BKN300 30/25 A2980

Hora: 12:06 (01:06 UTC)

Previsão

O boletim foi feito há 1 hora e 30 minutos, às 23:36 UTC
Previsão válida de 18 às 00 UTC a 18 às 24 UTC
Vento 5 kt com direcção variável
Visibilidade: 10 km
Nuvens dispersasa uma altura de 1800 ft

TAF: PTPN 172336Z 1800/1824 VRB05KT P6SM SCT018

Observações e previsões do tempo de mais de 4000 aeroportos (mensagens METAR e TAF).

As estações disponíveis são os pontos amarelos e vermelhos sobre o mapa.

Mova o rato sobre o mapa para ver o nome da estação.

Depois clique no ponto para visualizar as observações e previsões meteorológicas.

Para alterar o mapa : clique nos botões verdes com uma cruz preta para aumentar o zoom; no botão verde com uma pitada de zoom; ou nas setas verdes para mapas adjacentes.


METAR-TAF: